sensor_id;sensor_type;location;lat;lon;timestamp;temperature;humidity
30134;DHT22;16946;49.984;10.672;2022-08-21T00:00:16;16.60;99.90
30134;DHT22;16946;49.984;10.672;2022-08-21T00:00:47;16.60;99.90
30134;DHT22;16946;49.984;10.672;2022-08-21T00:01:21;16.60;99.90
30134;DHT22;16946;49.984;10.672;2022-08-21T00:01:52;16.60;99.90
30134;DHT22;16946;49.984;10.672;2022-08-21T00:02:25;16.60;99.90
30134;DHT22;16946;49.984;10.672;2022-08-21T00:03:03;16.60;99.90
30134;DHT22;16946;49.984;10.672;2022-08-21T00:03:33;16.60;99.90
30134;DHT22;16946;49.984;10.672;2022-08-21T00:04:06;16.60;99.90
30134;DHT22;16946;49.984;10.672;2022-08-21T00:04:36;16.60;99.90
30134;DHT22;16946;49.984;10.672;2022-08-21T00:05:07;16.60;99.90
30134;DHT22;16946;49.984;10.672;2022-08-21T00:05:41;16.60;99.90
30134;DHT22;16946;49.984;10.672;2022-08-21T00:06:13;16.50;99.90
30134;DHT22;16946;49.984;10.672;2022-08-21T00:06:43;16.50;99.90
30134;DHT22;16946;49.984;10.672;2022-08-21T00:07:14;16.50;99.90
30134;DHT22;16946;49.984;10.672;2022-08-21T00:07:45;16.50;99.90
30134;DHT22;16946;49.984;10.672;2022-08-21T00:08:17;16.50;99.90
30134;DHT22;16946;49.984;10.672;2022-08-21T00:08:47;16.60;99.90
30134;DHT22;16946;49.984;10.672;2022-08-21T00:09:19;16.60;99.90
30134;DHT22;16946;49.984;10.672;2022-08-21T00:09:50;16.50;99.90
30134;DHT22;16946;49.984;10.672;2022-08-21T00:10:21;16.50;99.90
30134;DHT22;16946;49.984;10.672;2022-08-21T00:10:51;16.50;99.90
30134;DHT22;16946;49.984;10.672;2022-08-21T00:11:22;16.50;99.90
30134;DHT22;16946;49.984;10.672;2022-08-21T00:11:53;16.50;99.90
30134;DHT22;16946;49.984;10.672;2022-08-21T00:12:24;16.50;99.90
30134;DHT22;16946;49.984;10.672;2022-08-21T00:12:54;16.50;99.90
30134;DHT22;16946;49.984;10.672;2022-08-21T00:13:25;16.50;99.90
30134;DHT22;16946;49.984;10.672;2022-08-21T00:13:56;16.50;99.90
30134;DHT22;16946;49.984;10.672;2022-08-21T00:14:27;16.50;99.90
30134;DHT22;16946;49.984;10.672;2022-08-21T00:14:58;16.40;99.90
30134;DHT22;16946;49.984;10.672;2022-08-21T00:15:34;16.40;99.90
30134;DHT22;16946;49.984;10.672;2022-08-21T00:16:05;16.40;99.90
30134;DHT22;16946;49.984;10.672;2022-08-21T00:16:36;16.40;99.90
30134;DHT22;16946;49.984;10.672;2022-08-21T00:17:07;16.40;99.90
30134;DHT22;16946;49.984;10.672;2022-08-21T00:17:38;16.40;99.90
30134;DHT22;16946;49.984;10.672;2022-08-21T00:18:09;16.40;99.90
30134;DHT22;16946;49.984;10.672;2022-08-21T00:18:41;16.40;99.90
30134;DHT22;16946;49.984;10.672;2022-08-21T00:19:11;16.40;99.90
30134;DHT22;16946;49.984;10.672;2022-08-21T00:19:42;16.50;99.90
30134;DHT22;16946;49.984;10.672;2022-08-21T00:20:14;16.50;99.90
30134;DHT22;16946;49.984;10.672;2022-08-21T00:20:46;16.50;99.90
30134;DHT22;16946;49.984;10.672;2022-08-21T00:21:17;16.50;99.90
30134;DHT22;16946;49.984;10.672;2022-08-21T00:21:47;16.50;99.90
30134;DHT22;16946;49.984;10.672;2022-08-21T00:22:18;16.50;99.90
30134;DHT22;16946;49.984;10.672;2022-08-21T00:22:49;16.50;99.90
30134;DHT22;16946;49.984;10.672;2022-08-21T00:23:20;16.50;99.90
30134;DHT22;16946;49.984;10.672;2022-08-21T00:23:51;16.40;99.90
30134;DHT22;16946;49.984;10.672;2022-08-21T00:24:22;16.40;99.90
30134;DHT22;16946;49.984;10.672;2022-08-21T00:24:53;16.40;99.90
30134;DHT22;16946;49.984;10.672;2022-08-21T00:25:24;16.40;99.90
30134;DHT22;16946;49.984;10.672;2022-08-21T00:25:54;16.50;99.90
30134;DHT22;16946;49.984;10.672;2022-08-21T00:26:25;16.50;99.90
30134;DHT22;16946;49.984;10.672;2022-08-21T00:26:56;16.50;99.90
30134;DHT22;16946;49.984;10.672;2022-08-21T00:27:27;16.50;99.90
30134;DHT22;16946;49.984;10.672;2022-08-21T00:27:57;16.50;99.90
30134;DHT22;16946;49.984;10.672;2022-08-21T00:28:28;16.50;99.90
30134;DHT22;16946;49.984;10.672;2022-08-21T00:28:58;16.40;99.90
30134;DHT22;16946;49.984;10.672;2022-08-21T00:29:29;16.40;99.90
30134;DHT22;16946;49.984;10.672;2022-08-21T00:29:59;16.40;99.90
30134;DHT22;16946;49.984;10.672;2022-08-21T00:30:31;16.40;99.90
30134;DHT22;16946;49.984;10.672;2022-08-21T00:31:01;16.30;99.90
30134;DHT22;16946;49.984;10.672;2022-08-21T00:31:34;16.30;99.90
30134;DHT22;16946;49.984;10.672;2022-08-21T00:32:04;16.30;99.90
30134;DHT22;16946;49.984;10.672;2022-08-21T00:32:37;16.30;99.90
30134;DHT22;16946;49.984;10.672;2022-08-21T00:33:08;16.30;99.90
30134;DHT22;16946;49.984;10.672;2022-08-21T00:33:39;16.30;99.90
30134;DHT22;16946;49.984;10.672;2022-08-21T00:34:11;16.30;99.90
30134;DHT22;16946;49.984;10.672;2022-08-21T00:34:42;16.30;99.90
30134;DHT22;16946;49.984;10.672;2022-08-21T00:35:16;16.30;99.90
30134;DHT22;16946;49.984;10.672;2022-08-21T00:35:46;16.40;99.90
30134;DHT22;16946;49.984;10.672;2022-08-21T00:36:17;16.40;99.90
30134;DHT22;16946;49.984;10.672;2022-08-21T00:36:47;16.40;99.90
30134;DHT22;16946;49.984;10.672;2022-08-21T00:37:19;16.40;99.90
30134;DHT22;16946;49.984;10.672;2022-08-21T00:37:49;16.40;99.90
30134;DHT22;16946;49.984;10.672;2022-08-21T00:38:20;16.30;99.90
30134;DHT22;16946;49.984;10.672;2022-08-21T00:38:50;16.30;99.90
30134;DHT22;16946;49.984;10.672;2022-08-21T00:39:21;16.30;99.90
30134;DHT22;16946;49.984;10.672;2022-08-21T00:39:51;16.30;99.90
30134;DHT22;16946;49.984;10.672;2022-08-21T00:40:29;16.30;99.90
30134;DHT22;16946;49.984;10.672;2022-08-21T00:41:03;16.30;99.90
30134;DHT22;16946;49.984;10.672;2022-08-21T00:41:40;16.30;99.90
30134;DHT22;16946;49.984;10.672;2022-08-21T00:42:11;16.30;99.90
30134;DHT22;16946;49.984;10.672;2022-08-21T00:42:45;16.30;99.90
30134;DHT22;16946;49.984;10.672;2022-08-21T00:43:19;16.30;99.90
30134;DHT22;16946;49.984;10.672;2022-08-21T00:43:51;16.40;99.90
30134;DHT22;16946;49.984;10.672;2022-08-21T00:44:21;16.40;99.90
30134;DHT22;16946;49.984;10.672;2022-08-21T00:44:52;16.50;99.90
30134;DHT22;16946;49.984;10.672;2022-08-21T00:45:23;16.50;99.90
30134;DHT22;16946;49.984;10.672;2022-08-21T00:45:54;16.50;99.90
30134;DHT22;16946;49.984;10.672;2022-08-21T00:46:25;16.50;99.90
30134;DHT22;16946;49.984;10.672;2022-08-21T00:46:56;16.50;99.90
30134;DHT22;16946;49.984;10.672;2022-08-21T00:47:27;16.50;99.90
30134;DHT22;16946;49.984;10.672;2022-08-21T00:47:58;16.50;99.90
30134;DHT22;16946;49.984;10.672;2022-08-21T00:48:28;16.60;99.90
30134;DHT22;16946;49.984;10.672;2022-08-21T00:48:59;16.60;99.90
30134;DHT22;16946;49.984;10.672;2022-08-21T00:49:29;16.50;99.90
30134;DHT22;16946;49.984;10.672;2022-08-21T00:50:00;16.50;99.90
30134;DHT22;16946;49.984;10.672;2022-08-21T00:50:33;16.40;99.90
30134;DHT22;16946;49.984;10.672;2022-08-21T00:51:17;16.40;99.90
30134;DHT22;16946;49.984;10.672;2022-08-21T00:51:57;16.30;99.90
30134;DHT22;16946;49.984;10.672;2022-08-21T00:52:32;16.30;99.90
30134;DHT22;16946;49.984;10.672;2022-08-21T00:53:04;16.30;99.90
30134;DHT22;16946;49.984;10.672;2022-08-21T00:53:38;16.30;99.90
30134;DHT22;16946;49.984;10.672;2022-08-21T00:54:10;16.30;99.90
30134;DHT22;16946;49.984;10.672;2022-08-21T00:54:43;16.20;99.90
30134;DHT22;16946;49.984;10.672;2022-08-21T00:55:14;16.20;99.90
30134;DHT22;16946;49.984;10.672;2022-08-21T00:55:45;16.10;99.90
30134;DHT22;16946;49.984;10.672;2022-08-21T00:56:16;16.10;99.90
30134;DHT22;16946;49.984;10.672;2022-08-21T00:57:45;16.00;99.90
30134;DHT22;16946;49.984;10.672;2022-08-21T00:58:17;16.00;99.90
30134;DHT22;16946;49.984;10.672;2022-08-21T00:58:49;16.00;99.90
30134;DHT22;16946;49.984;10.672;2022-08-21T00:59:21;16.00;99.90
30134;DHT22;16946;49.984;10.672;2022-08-21T00:59:53;16.10;99.90
30134;DHT22;16946;49.984;10.672;2022-08-21T01:00:31;16.10;99.90
30134;DHT22;16946;49.984;10.672;2022-08-21T01:01:03;16.20;99.90
30134;DHT22;16946;49.984;10.672;2022-08-21T01:01:35;16.20;99.90
30134;DHT22;16946;49.984;10.672;2022-08-21T01:02:07;16.20;99.90
30134;DHT22;16946;49.984;10.672;2022-08-21T01:02:38;16.30;99.90
30134;DHT22;16946;49.984;10.672;2022-08-21T01:03:13;16.30;99.90
30134;DHT22;16946;49.984;10.672;2022-08-21T01:03:45;16.30;99.90
30134;DHT22;16946;49.984;10.672;2022-08-21T01:04:16;16.40;99.90
30134;DHT22;16946;49.984;10.672;2022-08-21T01:04:47;16.40;99.90
30134;DHT22;16946;49.984;10.672;2022-08-21T01:05:18;16.40;99.90
30134;DHT22;16946;49.984;10.672;2022-08-21T01:05:49;16.50;99.90
30134;DHT22;16946;49.984;10.672;2022-08-21T01:06:20;16.50;99.90
30134;DHT22;16946;49.984;10.672;2022-08-21T01:06:50;16.50;99.90
30134;DHT22;16946;49.984;10.672;2022-08-21T01:07:21;16.60;99.90
30134;DHT22;16946;49.984;10.672;2022-08-21T01:07:53;16.60;99.90
30134;DHT22;16946;49.984;10.672;2022-08-21T01:08:23;16.60;99.90
30134;DHT22;16946;49.984;10.672;2022-08-21T01:08:55;16.60;99.90
30134;DHT22;16946;49.984;10.672;2022-08-21T01:09:26;16.60;99.90
30134;DHT22;16946;49.984;10.672;2022-08-21T01:09:56;16.70;99.90
30134;DHT22;16946;49.984;10.672;2022-08-21T01:10:27;16.70;99.90
30134;DHT22;16946;49.984;10.672;2022-08-21T01:10:59;16.70;99.90
30134;DHT22;16946;49.984;10.672;2022-08-21T01:11:31;16.60;99.90
30134;DHT22;16946;49.984;10.672;2022-08-21T01:12:02;16.70;99.90
30134;DHT22;16946;49.984;10.672;2022-08-21T01:12:34;16.60;99.90
30134;DHT22;16946;49.984;10.672;2022-08-21T01:13:06;16.60;99.90
30134;DHT22;16946;49.984;10.672;2022-08-21T01:13:39;16.60;99.90
30134;DHT22;16946;49.984;10.672;2022-08-21T01:14:15;16.50;99.90
30134;DHT22;16946;49.984;10.672;2022-08-21T01:14:46;16.40;99.90
30134;DHT22;16946;49.984;10.672;2022-08-21T01:15:17;16.30;99.90
30134;DHT22;16946;49.984;10.672;2022-08-21T01:15:50;16.30;99.90
30134;DHT22;16946;49.984;10.672;2022-08-21T01:16:22;16.30;99.90
30134;DHT22;16946;49.984;10.672;2022-08-21T01:16:54;16.30;99.90
30134;DHT22;16946;49.984;10.672;2022-08-21T01:17:26;16.30;99.90
30134;DHT22;16946;49.984;10.672;2022-08-21T01:17:57;16.30;99.90
30134;DHT22;16946;49.984;10.672;2022-08-21T01:18:28;16.40;99.90
30134;DHT22;16946;49.984;10.672;2022-08-21T01:18:58;16.40;99.90
30134;DHT22;16946;49.984;10.672;2022-08-21T01:19:29;16.50;99.90
30134;DHT22;16946;49.984;10.672;2022-08-21T01:20:04;16.50;99.90
30134;DHT22;16946;49.984;10.672;2022-08-21T01:20:37;16.50;99.90
30134;DHT22;16946;49.984;10.672;2022-08-21T01:21:11;16.60;99.90
30134;DHT22;16946;49.984;10.672;2022-08-21T01:21:42;16.60;99.90
30134;DHT22;16946;49.984;10.672;2022-08-21T01:22:13;16.60;99.90
30134;DHT22;16946;49.984;10.672;2022-08-21T01:22:43;16.70;99.90
30134;DHT22;16946;49.984;10.672;2022-08-21T01:23:14;16.70;99.90
30134;DHT22;16946;49.984;10.672;2022-08-21T01:23:47;16.80;99.90
30134;DHT22;16946;49.984;10.672;2022-08-21T01:24:17;16.80;99.90
30134;DHT22;16946;49.984;10.672;2022-08-21T01:24:48;16.90;99.90
30134;DHT22;16946;49.984;10.672;2022-08-21T01:25:20;16.90;99.90
30134;DHT22;16946;49.984;10.672;2022-08-21T01:25:51;16.90;99.90
30134;DHT22;16946;49.984;10.672;2022-08-21T01:26:25;16.90;99.90
30134;DHT22;16946;49.984;10.672;2022-08-21T01:26:56;16.90;99.90
30134;DHT22;16946;49.984;10.672;2022-08-21T01:27:27;16.90;99.90
30134;DHT22;16946;49.984;10.672;2022-08-21T01:28:02;16.90;99.90
30134;DHT22;16946;49.984;10.672;2022-08-21T01:28:42;16.90;99.90
30134;DHT22;16946;49.984;10.672;2022-08-21T01:29:39;16.90;99.90
30134;DHT22;16946;49.984;10.672;2022-08-21T01:30:19;16.90;99.90
30134;DHT22;16946;49.984;10.672;2022-08-21T01:30:51;16.90;99.90
30134;DHT22;16946;49.984;10.672;2022-08-21T01:31:25;16.80;99.90
30134;DHT22;16946;49.984;10.672;2022-08-21T01:31:57;16.70;99.90
30134;DHT22;16946;49.984;10.672;2022-08-21T01:32:28;16.70;99.90
30134;DHT22;16946;49.984;10.672;2022-08-21T01:32:59;16.70;99.90
30134;DHT22;16946;49.984;10.672;2022-08-21T01:33:29;16.70;99.90
30134;DHT22;16946;49.984;10.672;2022-08-21T01:34:00;16.60;99.90
30134;DHT22;16946;49.984;10.672;2022-08-21T01:34:32;16.60;99.90
30134;DHT22;16946;49.984;10.672;2022-08-21T01:35:04;16.60;99.90
30134;DHT22;16946;49.984;10.672;2022-08-21T01:35:35;16.60;99.90
30134;DHT22;16946;49.984;10.672;2022-08-21T01:36:06;16.60;99.90
30134;DHT22;16946;49.984;10.672;2022-08-21T01:36:36;16.60;99.90
30134;DHT22;16946;49.984;10.672;2022-08-21T01:37:07;16.60;99.90
30134;DHT22;16946;49.984;10.672;2022-08-21T01:37:38;16.70;99.90
30134;DHT22;16946;49.984;10.672;2022-08-21T01:38:08;16.70;99.90
30134;DHT22;16946;49.984;10.672;2022-08-21T01:38:39;16.70;99.90
30134;DHT22;16946;49.984;10.672;2022-08-21T01:39:10;16.70;99.90
30134;DHT22;16946;49.984;10.672;2022-08-21T01:39:41;16.80;99.90
30134;DHT22;16946;49.984;10.672;2022-08-21T01:40:12;16.80;99.90
30134;DHT22;16946;49.984;10.672;2022-08-21T01:40:46;16.80;99.90
30134;DHT22;16946;49.984;10.672;2022-08-21T01:41:17;16.90;99.90
30134;DHT22;16946;49.984;10.672;2022-08-21T01:41:47;16.90;99.90
30134;DHT22;16946;49.984;10.672;2022-08-21T01:42:18;16.90;99.90
30134;DHT22;16946;49.984;10.672;2022-08-21T01:42:48;16.90;99.90
30134;DHT22;16946;49.984;10.672;2022-08-21T01:43:19;16.90;99.90
30134;DHT22;16946;49.984;10.672;2022-08-21T01:43:49;16.90;99.90
30134;DHT22;16946;49.984;10.672;2022-08-21T01:44:22;17.00;99.90
30134;DHT22;16946;49.984;10.672;2022-08-21T01:44:53;16.90;99.90
30134;DHT22;16946;49.984;10.672;2022-08-21T01:45:23;16.90;99.90
30134;DHT22;16946;49.984;10.672;2022-08-21T01:45:54;16.90;99.90
30134;DHT22;16946;49.984;10.672;2022-08-21T01:46:25;16.90;99.90
30134;DHT22;16946;49.984;10.672;2022-08-21T01:46:57;16.90;99.90
30134;DHT22;16946;49.984;10.672;2022-08-21T01:47:28;16.90;99.90
30134;DHT22;16946;49.984;10.672;2022-08-21T01:47:59;17.00;99.90
30134;DHT22;16946;49.984;10.672;2022-08-21T01:48:30;17.00;99.90
30134;DHT22;16946;49.984;10.672;2022-08-21T01:49:00;17.00;99.90
30134;DHT22;16946;49.984;10.672;2022-08-21T01:49:31;16.90;99.90
30134;DHT22;16946;49.984;10.672;2022-08-21T01:50:05;16.90;99.90
30134;DHT22;16946;49.984;10.672;2022-08-21T01:50:37;16.80;99.90
30134;DHT22;16946;49.984;10.672;2022-08-21T01:51:08;16.80;99.90
30134;DHT22;16946;49.984;10.672;2022-08-21T01:51:39;16.80;99.90
30134;DHT22;16946;49.984;10.672;2022-08-21T01:52:10;16.70;99.90
30134;DHT22;16946;49.984;10.672;2022-08-21T01:52:41;16.70;99.90
30134;DHT22;16946;49.984;10.672;2022-08-21T01:53:12;16.70;99.90
30134;DHT22;16946;49.984;10.672;2022-08-21T01:53:43;16.80;99.90
30134;DHT22;16946;49.984;10.672;2022-08-21T01:54:14;16.80;99.90
30134;DHT22;16946;49.984;10.672;2022-08-21T01:54:44;16.70;99.90
30134;DHT22;16946;49.984;10.672;2022-08-21T01:55:17;16.60;99.90
30134;DHT22;16946;49.984;10.672;2022-08-21T01:55:48;16.50;99.90
30134;DHT22;16946;49.984;10.672;2022-08-21T01:56:18;16.40;99.90
30134;DHT22;16946;49.984;10.672;2022-08-21T01:56:51;16.40;99.90
30134;DHT22;16946;49.984;10.672;2022-08-21T01:57:23;16.40;99.90
30134;DHT22;16946;49.984;10.672;2022-08-21T01:57:54;16.40;99.90
30134;DHT22;16946;49.984;10.672;2022-08-21T01:58:25;16.40;99.90
30134;DHT22;16946;49.984;10.672;2022-08-21T01:58:55;16.40;99.90
30134;DHT22;16946;49.984;10.672;2022-08-21T01:59:26;16.40;99.90
30134;DHT22;16946;49.984;10.672;2022-08-21T01:59:57;16.40;99.90
30134;DHT22;16946;49.984;10.672;2022-08-21T02:00:27;16.40;99.90
30134;DHT22;16946;49.984;10.672;2022-08-21T02:00:58;16.30;99.90
30134;DHT22;16946;49.984;10.672;2022-08-21T02:01:28;16.30;99.90
30134;DHT22;16946;49.984;10.672;2022-08-21T02:01:59;16.40;99.90
30134;DHT22;16946;49.984;10.672;2022-08-21T02:02:29;16.40;99.90
30134;DHT22;16946;49.984;10.672;2022-08-21T02:03:00;16.40;99.90
30134;DHT22;16946;49.984;10.672;2022-08-21T02:03:31;16.40;99.90
30134;DHT22;16946;49.984;10.672;2022-08-21T02:04:01;16.40;99.90
30134;DHT22;16946;49.984;10.672;2022-08-21T02:04:32;16.40;99.90
30134;DHT22;16946;49.984;10.672;2022-08-21T02:05:04;16.40;99.90
30134;DHT22;16946;49.984;10.672;2022-08-21T02:05:35;16.40;99.90
30134;DHT22;16946;49.984;10.672;2022-08-21T02:06:06;16.40;99.90
30134;DHT22;16946;49.984;10.672;2022-08-21T02:06:38;16.40;99.90
30134;DHT22;16946;49.984;10.672;2022-08-21T02:07:08;16.40;99.90
30134;DHT22;16946;49.984;10.672;2022-08-21T02:07:45;16.50;99.90
30134;DHT22;16946;49.984;10.672;2022-08-21T02:08:16;16.40;99.90
30134;DHT22;16946;49.984;10.672;2022-08-21T02:08:47;16.40;99.90
30134;DHT22;16946;49.984;10.672;2022-08-21T02:09:18;16.40;99.90
30134;DHT22;16946;49.984;10.672;2022-08-21T02:09:49;16.50;99.90
30134;DHT22;16946;49.984;10.672;2022-08-21T02:10:23;16.50;99.90
30134;DHT22;16946;49.984;10.672;2022-08-21T02:10:54;16.50;99.90
30134;DHT22;16946;49.984;10.672;2022-08-21T02:11:24;16.40;99.90
30134;DHT22;16946;49.984;10.672;2022-08-21T02:11:55;16.40;99.90
30134;DHT22;16946;49.984;10.672;2022-08-21T02:12:26;16.30;99.90
30134;DHT22;16946;49.984;10.672;2022-08-21T02:12:58;16.30;99.90
30134;DHT22;16946;49.984;10.672;2022-08-21T02:13:30;16.30;99.90
30134;DHT22;16946;49.984;10.672;2022-08-21T02:14:00;16.30;99.90
30134;DHT22;16946;49.984;10.672;2022-08-21T02:14:31;16.40;99.90
30134;DHT22;16946;49.984;10.672;2022-08-21T02:15:03;16.40;99.90
30134;DHT22;16946;49.984;10.672;2022-08-21T02:15:34;16.50;99.90
30134;DHT22;16946;49.984;10.672;2022-08-21T02:16:05;16.50;99.90
30134;DHT22;16946;49.984;10.672;2022-08-21T02:16:37;16.50;99.90
30134;DHT22;16946;49.984;10.672;2022-08-21T02:17:08;16.50;99.90
30134;DHT22;16946;49.984;10.672;2022-08-21T02:17:44;16.60;99.90
30134;DHT22;16946;49.984;10.672;2022-08-21T02:18:15;16.60;99.90
30134;DHT22;16946;49.984;10.672;2022-08-21T02:18:46;16.60;99.90
30134;DHT22;16946;49.984;10.672;2022-08-21T02:19:17;16.60;99.90
30134;DHT22;16946;49.984;10.672;2022-08-21T02:19:47;16.60;99.90
30134;DHT22;16946;49.984;10.672;2022-08-21T02:20:28;16.60;99.90
30134;DHT22;16946;49.984;10.672;2022-08-21T02:20:59;16.60;99.90
30134;DHT22;16946;49.984;10.672;2022-08-21T02:21:30;16.60;99.90
30134;DHT22;16946;49.984;10.672;2022-08-21T02:22:00;16.70;99.90
30134;DHT22;16946;49.984;10.672;2022-08-21T02:22:31;16.70;99.90
30134;DHT22;16946;49.984;10.672;2022-08-21T02:23:02;16.70;99.90
30134;DHT22;16946;49.984;10.672;2022-08-21T02:23:34;16.70;99.90
30134;DHT22;16946;49.984;10.672;2022-08-21T02:24:05;16.70;99.90
30134;DHT22;16946;49.984;10.672;2022-08-21T02:24:37;16.70;99.90
30134;DHT22;16946;49.984;10.672;2022-08-21T02:25:08;16.70;99.90
30134;DHT22;16946;49.984;10.672;2022-08-21T02:25:38;16.70;99.90
30134;DHT22;16946;49.984;10.672;2022-08-21T02:26:09;16.80;99.90
30134;DHT22;16946;49.984;10.672;2022-08-21T02:26:40;16.70;99.90
30134;DHT22;16946;49.984;10.672;2022-08-21T02:27:11;16.70;99.90
30134;DHT22;16946;49.984;10.672;2022-08-21T02:27:43;16.70;99.90
30134;DHT22;16946;49.984;10.672;2022-08-21T02:28:15;16.70;99.90
30134;DHT22;16946;49.984;10.672;2022-08-21T02:28:45;16.70;99.90
30134;DHT22;16946;49.984;10.672;2022-08-21T02:29:16;16.70;99.90
30134;DHT22;16946;49.984;10.672;2022-08-21T02:29:46;16.70;99.90
30134;DHT22;16946;49.984;10.672;2022-08-21T02:30:21;16.70;99.90
30134;DHT22;16946;49.984;10.672;2022-08-21T02:30:53;16.70;99.90
30134;DHT22;16946;49.984;10.672;2022-08-21T02:31:24;16.70;99.90
30134;DHT22;16946;49.984;10.672;2022-08-21T02:31:54;16.60;99.90
30134;DHT22;16946;49.984;10.672;2022-08-21T02:32:25;16.60;99.90
30134;DHT22;16946;49.984;10.672;2022-08-21T02:32:56;16.60;99.90
30134;DHT22;16946;49.984;10.672;2022-08-21T02:33:27;16.50;99.90
30134;DHT22;16946;49.984;10.672;2022-08-21T02:33:58;16.50;99.90
30134;DHT22;16946;49.984;10.672;2022-08-21T02:34:29;16.40;99.90
30134;DHT22;16946;49.984;10.672;2022-08-21T02:35:00;16.40;99.90
30134;DHT22;16946;49.984;10.672;2022-08-21T02:35:30;16.30;99.90
30134;DHT22;16946;49.984;10.672;2022-08-21T02:36:03;16.30;99.90
30134;DHT22;16946;49.984;10.672;2022-08-21T02:36:33;16.30;99.90
30134;DHT22;16946;49.984;10.672;2022-08-21T02:37:04;16.30;99.90
30134;DHT22;16946;49.984;10.672;2022-08-21T02:37:53;16.30;99.90
30134;DHT22;16946;49.984;10.672;2022-08-21T02:38:27;16.30;99.90
30134;DHT22;16946;49.984;10.672;2022-08-21T02:38:58;16.30;99.90
30134;DHT22;16946;49.984;10.672;2022-08-21T02:39:29;16.30;99.90
30134;DHT22;16946;49.984;10.672;2022-08-21T02:40:00;16.30;99.90
30134;DHT22;16946;49.984;10.672;2022-08-21T02:40:34;16.30;99.90
30134;DHT22;16946;49.984;10.672;2022-08-21T02:41:08;16.30;99.90
30134;DHT22;16946;49.984;10.672;2022-08-21T02:41:38;16.30;99.90
30134;DHT22;16946;49.984;10.672;2022-08-21T02:42:09;16.40;99.90
30134;DHT22;16946;49.984;10.672;2022-08-21T02:42:39;16.40;99.90
30134;DHT22;16946;49.984;10.672;2022-08-21T02:43:10;16.40;99.90
30134;DHT22;16946;49.984;10.672;2022-08-21T02:43:41;16.40;99.90
30134;DHT22;16946;49.984;10.672;2022-08-21T02:44:12;16.40;99.90
30134;DHT22;16946;49.984;10.672;2022-08-21T02:44:43;16.40;99.90
30134;DHT22;16946;49.984;10.672;2022-08-21T02:45:14;16.40;99.90
30134;DHT22;16946;49.984;10.672;2022-08-21T02:45:47;16.40;99.90
30134;DHT22;16946;49.984;10.672;2022-08-21T02:46:19;16.40;99.90
30134;DHT22;16946;49.984;10.672;2022-08-21T02:46:50;16.40;99.90
30134;DHT22;16946;49.984;10.672;2022-08-21T02:47:20;16.40;99.90
30134;DHT22;16946;49.984;10.672;2022-08-21T02:47:56;16.40;99.90
30134;DHT22;16946;49.984;10.672;2022-08-21T02:48:29;16.40;99.90
30134;DHT22;16946;49.984;10.672;2022-08-21T02:49:00;16.40;99.90
30134;DHT22;16946;49.984;10.672;2022-08-21T02:49:30;16.40;99.90
30134;DHT22;16946;49.984;10.672;2022-08-21T02:50:02;16.30;99.90
30134;DHT22;16946;49.984;10.672;2022-08-21T02:50:40;16.30;99.90
30134;DHT22;16946;49.984;10.672;2022-08-21T02:51:15;16.30;99.90
30134;DHT22;16946;49.984;10.672;2022-08-21T02:51:47;16.30;99.90
30134;DHT22;16946;49.984;10.672;2022-08-21T02:52:18;16.40;99.90
30134;DHT22;16946;49.984;10.672;2022-08-21T02:52:49;16.40;99.90
30134;DHT22;16946;49.984;10.672;2022-08-21T02:53:20;16.40;99.90
30134;DHT22;16946;49.984;10.672;2022-08-21T02:53:52;16.30;99.90
30134;DHT22;16946;49.984;10.672;2022-08-21T02:54:22;16.40;99.90
30134;DHT22;16946;49.984;10.672;2022-08-21T02:54:53;16.40;99.90
30134;DHT22;16946;49.984;10.672;2022-08-21T02:55:25;16.40;99.90
30134;DHT22;16946;49.984;10.672;2022-08-21T02:55:59;16.40;99.90
30134;DHT22;16946;49.984;10.672;2022-08-21T02:56:30;16.40;99.90
30134;DHT22;16946;49.984;10.672;2022-08-21T02:57:00;16.40;99.90
30134;DHT22;16946;49.984;10.672;2022-08-21T02:57:31;16.40;99.90
30134;DHT22;16946;49.984;10.672;2022-08-21T02:58:05;16.40;99.90
30134;DHT22;16946;49.984;10.672;2022-08-21T02:58:39;16.40;99.90
30134;DHT22;16946;49.984;10.672;2022-08-21T02:59:10;16.40;99.90
30134;DHT22;16946;49.984;10.672;2022-08-21T02:59:41;16.40;99.90
30134;DHT22;16946;49.984;10.672;2022-08-21T03:00:11;16.40;99.90
30134;DHT22;16946;49.984;10.672;2022-08-21T03:00:44;16.40;99.90
30134;DHT22;16946;49.984;10.672;2022-08-21T03:01:15;16.40;99.90
30134;DHT22;16946;49.984;10.672;2022-08-21T03:01:46;16.40;99.90
30134;DHT22;16946;49.984;10.672;2022-08-21T03:02:16;16.40;99.90
30134;DHT22;16946;49.984;10.672;2022-08-21T03:02:48;16.40;99.90
30134;DHT22;16946;49.984;10.672;2022-08-21T03:03:19;16.40;99.90
30134;DHT22;16946;49.984;10.672;2022-08-21T03:03:51;16.40;99.90
30134;DHT22;16946;49.984;10.672;2022-08-21T03:04:22;16.40;99.90
30134;DHT22;16946;49.984;10.672;2022-08-21T03:04:52;16.40;99.90
30134;DHT22;16946;49.984;10.672;2022-08-21T03:05:24;16.50;99.90
30134;DHT22;16946;49.984;10.672;2022-08-21T03:05:55;16.50;99.90
30134;DHT22;16946;49.984;10.672;2022-08-21T03:06:26;16.40;99.90
30134;DHT22;16946;49.984;10.672;2022-08-21T03:06:56;16.40;99.90
30134;DHT22;16946;49.984;10.672;2022-08-21T03:07:27;16.50;99.90
30134;DHT22;16946;49.984;10.672;2022-08-21T03:08:00;16.40;99.90
30134;DHT22;16946;49.984;10.672;2022-08-21T03:08:30;16.40;99.90
30134;DHT22;16946;49.984;10.672;2022-08-21T03:09:01;16.40;99.90
30134;DHT22;16946;49.984;10.672;2022-08-21T03:09:32;16.40;99.90
30134;DHT22;16946;49.984;10.672;2022-08-21T03:10:06;16.40;99.90
30134;DHT22;16946;49.984;10.672;2022-08-21T03:10:38;16.40;99.90
30134;DHT22;16946;49.984;10.672;2022-08-21T03:11:10;16.40;99.90
30134;DHT22;16946;49.984;10.672;2022-08-21T03:11:41;16.40;99.90
30134;DHT22;16946;49.984;10.672;2022-08-21T03:12:12;16.40;99.90
30134;DHT22;16946;49.984;10.672;2022-08-21T03:12:42;16.30;99.90
30134;DHT22;16946;49.984;10.672;2022-08-21T03:13:14;16.30;99.90
30134;DHT22;16946;49.984;10.672;2022-08-21T03:13:45;16.20;99.90
30134;DHT22;16946;49.984;10.672;2022-08-21T03:14:16;16.30;99.90
30134;DHT22;16946;49.984;10.672;2022-08-21T03:14:47;16.20;99.90
30134;DHT22;16946;49.984;10.672;2022-08-21T03:15:19;16.20;99.90
30134;DHT22;16946;49.984;10.672;2022-08-21T03:15:51;16.20;99.90
30134;DHT22;16946;49.984;10.672;2022-08-21T03:16:21;16.20;99.90
30134;DHT22;16946;49.984;10.672;2022-08-21T03:16:52;16.20;99.90
30134;DHT22;16946;49.984;10.672;2022-08-21T03:17:23;16.10;99.90
30134;DHT22;16946;49.984;10.672;2022-08-21T03:17:54;16.10;99.90